Time;durP1;ratioP1;P1;durP2;ratioP2;P2;SDS_P1;SDS_P2;PMS_P1;PMS_P2;Temp;Humidity;BMP_temperature;BMP_pressure;BME280_temperature;BME280_humidity;BME280_pressure;Samples;Min_cycle;Max_cycle;Signal;HPM_P1;HPM_P2
2022/12/14 00:04:39;;;;;;;193.63;78.70;;;-9.30;99.90;;;;;;10321792;28;20023;-81
2022/12/14 00:09:40;;;;;;;192.93;73.93;;;-9.30;99.90;;;;;;10318527;28;20540;-81
2022/12/14 00:14:41;;;;;;;216.03;84.20;;;-9.10;99.90;;;;;;10325562;28;20048;-82
2022/12/14 00:19:41;;;;;;;208.27;82.13;;;-9.00;99.90;;;;;;10324675;28;20607;-83
2022/12/14 00:24:42;;;;;;;207.63;85.80;;;-8.90;99.90;;;;;;10324978;28;20113;-83
2022/12/14 00:29:43;;;;;;;174.57;72.53;;;-8.80;99.90;;;;;;10325806;28;20125;-82
2022/12/14 00:34:44;;;;;;;162.20;68.10;;;-8.70;99.90;;;;;;10322486;28;20081;-82
2022/12/14 00:39:45;;;;;;;160.83;65.37;;;-8.50;99.90;;;;;;10324641;28;20049;-82
2022/12/14 00:44:45;;;;;;;158.67;67.50;;;-8.40;99.90;;;;;;10324625;28;20036;-81
2022/12/14 00:49:46;;;;;;;156.63;62.37;;;-8.30;99.90;;;;;;10323688;28;20038;-82
2022/12/14 00:54:46;;;;;;;160.17;68.77;;;-8.30;99.90;;;;;;10323862;28;20042;-82
2022/12/14 00:59:47;;;;;;;180.90;74.60;;;-8.30;99.90;;;;;;10323413;28;20058;-82
2022/12/14 01:04:47;;;;;;;216.33;83.70;;;-8.10;99.90;;;;;;10323742;28;20700;-82
2022/12/14 01:09:48;;;;;;;200.43;84.77;;;-8.00;99.90;;;;;;10323526;28;20501;-82
2022/12/14 01:14:48;;;;;;;177.93;74.60;;;-7.90;99.90;;;;;;10323299;28;20672;-82
2022/12/14 01:19:49;;;;;;;200.83;77.50;;;-7.80;99.90;;;;;;10322841;28;20042;-83
2022/12/14 01:24:49;;;;;;;206.20;85.87;;;-7.60;99.90;;;;;;10321675;28;20593;-82
2022/12/14 01:29:50;;;;;;;246.40;102.37;;;-7.50;99.90;;;;;;10322647;28;20034;-82
2022/12/14 01:34:50;;;;;;;247.73;101.20;;;-7.50;99.90;;;;;;10322082;28;20068;-82
2022/12/14 01:39:51;;;;;;;237.90;98.07;;;-7.30;99.90;;;;;;10322491;28;20042;-82
2022/12/14 01:44:55;;;;;;;217.60;91.83;;;-7.30;99.90;;;;;;10321010;28;20038;-81
2022/12/14 01:50:06;;;;;;;229.70;96.00;;;-7.20;99.90;;;;;;10322173;28;20121;-82
2022/12/14 01:55:26;;;;;;;220.77;93.30;;;-7.20;99.90;;;;;;10320809;28;20038;-82
2022/12/14 02:00:26;;;;;;;223.77;89.07;;;-7.10;99.90;;;;;;10320694;28;20077;-82
2022/12/14 02:05:30;;;;;;;214.90;91.43;;;-7.10;99.90;;;;;;10320620;28;20177;-82
2022/12/14 02:10:32;;;;;;;197.43;87.13;;;-7.10;99.90;;;;;;10320099;28;20027;-83
2022/12/14 02:15:33;;;;;;;215.37;87.23;;;-7.20;99.90;;;;;;10320810;28;20045;-82
2022/12/14 02:21:08;;;;;;;187.43;78.90;;;-7.20;99.90;;;;;;10319706;28;20038;-82
2022/12/14 02:26:27;;;;;;;192.03;76.20;;;-7.30;99.90;;;;;;10251938;28;20043;-84
2022/12/14 02:32:08;;;;;;;187.27;77.37;;;-7.60;99.90;;;;;;10319584;28;20109;-83
2022/12/14 02:37:28;;;;;;;173.13;67.37;;;-7.70;99.90;;;;;;10318329;28;20065;-82
2022/12/14 02:42:58;;;;;;;152.53;59.23;;;-7.90;99.90;;;;;;10320220;28;20058;-82
2022/12/14 02:48:34;;;;;;;142.10;58.90;;;-7.90;99.90;;;;;;10300410;28;20057;-82
2022/12/14 02:53:46;;;;;;;136.73;55.93;;;-7.90;99.90;;;;;;10304112;28;20557;-82
2022/12/14 02:58:49;;;;;;;133.87;52.87;;;-7.90;99.90;;;;;;10318464;28;20050;-83
2022/12/14 03:03:50;;;;;;;136.67;54.63;;;-7.80;99.90;;;;;;10316495;28;20386;-82
2022/12/14 03:09:05;;;;;;;138.33;54.40;;;-7.80;99.90;;;;;;10317497;28;20026;-83
2022/12/14 03:14:19;;;;;;;122.20;50.45;;;-7.90;99.90;;;;;;10315785;28;20111;-82
2022/12/14 03:19:27;;;;;;;128.20;53.17;;;-7.90;99.90;;;;;;10318093;28;20050;-83
2022/12/14 03:24:35;;;;;;;123.73;48.97;;;-8.00;99.90;;;;;;10318710;28;20151;-82
2022/12/14 03:29:55;;;;;;;131.50;50.57;;;-8.10;99.90;;;;;;10318822;28;20030;-83
2022/12/14 03:35:03;;;;;;;110.10;45.73;;;-8.10;99.90;;;;;;10317395;28;20054;-82
2022/12/14 03:40:09;;;;;;;115.87;43.87;;;-8.20;99.90;;;;;;10316429;28;20054;-81
2022/12/14 03:45:17;;;;;;;103.50;39.90;;;-8.20;99.90;;;;;;10316972;28;20030;-82
2022/12/14 03:50:26;;;;;;;89.33;38.07;;;-8.20;99.90;;;;;;10317660;28;20034;-83
2022/12/14 03:55:38;;;;;;;92.23;38.67;;;-8.30;99.90;;;;;;10317033;28;20041;-83
2022/12/14 04:00:59;;;;;;;108.83;41.97;;;-8.20;99.90;;;;;;10317533;28;20490;-85
2022/12/14 04:06:08;;;;;;;103.57;41.10;;;-8.30;99.90;;;;;;10327220;28;20084;-83
2022/12/14 04:22:17;;;;;;;120.33;46.20;;;-8.30;99.90;;;;;;10277946;28;20046;-81
2022/12/14 04:27:28;;;;;;;151.60;56.10;;;-8.30;99.90;;;;;;10277982;28;20049;-82
2022/12/14 04:32:47;;;;;;;141.50;49.60;;;-8.20;99.90;;;;;;10271323;28;20391;-81
2022/12/14 04:37:54;;;;;;;100.50;39.53;;;-8.10;99.90;;;;;;10293845;28;20769;-83
2022/12/14 04:43:00;;;;;;;118.63;44.20;;;-8.00;99.90;;;;;;10278159;28;20134;-85
2022/12/14 04:48:16;;;;;;;103.60;38.63;;;-8.00;99.90;;;;;;10342245;28;20046;-83
2022/12/14 04:53:24;;;;;;;78.03;32.33;;;-8.00;99.90;;;;;;10322270;28;20081;-84
2022/12/14 04:58:27;;;;;;;91.87;34.00;;;-8.00;99.90;;;;;;10323386;28;20038;-83
2022/12/14 05:03:33;;;;;;;80.33;32.43;;;-7.90;99.90;;;;;;10317969;28;20073;-83
2022/12/14 05:08:44;;;;;;;80.77;30.63;;;-7.90;99.90;;;;;;10321820;28;20046;-85
2022/12/14 05:13:48;;;;;;;74.63;31.00;;;-7.80;99.90;;;;;;10319122;28;20030;-85
2022/12/14 05:18:49;;;;;;;74.50;31.40;;;-7.80;99.90;;;;;;10315387;28;20053;-83
2022/12/14 05:23:49;;;;;;;82.40;32.17;;;-7.80;99.90;;;;;;10320495;28;20670;-85
2022/12/14 05:28:50;;;;;;;88.97;35.10;;;-7.70;99.90;;;;;;10322042;28;20117;-83
2022/12/14 05:33:51;;;;;;;84.93;34.93;;;-7.60;99.90;;;;;;10319767;28;20556;-84
2022/12/14 05:38:51;;;;;;;92.13;37.23;;;-7.50;99.90;;;;;;10309252;28;20684;-83
2022/12/14 05:43:52;;;;;;;86.30;35.07;;;-7.50;99.90;;;;;;10321295;28;20425;-84
2022/12/14 05:48:53;;;;;;;79.87;33.97;;;-7.40;99.90;;;;;;10320754;28;20120;-83
2022/12/14 05:53:53;;;;;;;98.60;35.57;;;-7.40;99.90;;;;;;10322742;28;20026;-83
2022/12/14 05:58:54;;;;;;;103.33;42.60;;;-7.50;99.90;;;;;;10322071;28;20061;-83
2022/12/14 06:03:55;;;;;;;107.17;45.73;;;-7.50;99.90;;;;;;10321281;28;20060;-83
2022/12/14 06:08:55;;;;;;;105.47;44.00;;;-7.50;99.90;;;;;;10321329;28;20034;-83
2022/12/14 06:13:56;;;;;;;106.90;43.73;;;-7.50;99.90;;;;;;10321053;28;20552;-83
2022/12/14 06:18:58;;;;;;;124.60;51.40;;;-7.40;99.90;;;;;;10321534;28;20042;-83
2022/12/14 06:23:59;;;;;;;120.27;48.13;;;-7.40;99.90;;;;;;10321310;28;20141;-84
2022/12/14 06:29:00;;;;;;;118.73;43.23;;;-7.40;99.90;;;;;;10320983;28;20429;-83
2022/12/14 06:34:02;;;;;;;114.33;44.63;;;-7.40;99.90;;;;;;10319952;28;20576;-83
2022/12/14 06:39:14;;;;;;;119.07;45.87;;;-7.50;99.90;;;;;;10351805;28;20092;-83
2022/12/14 06:44:15;;;;;;;111.17;42.43;;;-7.40;99.90;;;;;;10320726;28;20027;-82
2022/12/14 06:49:16;;;;;;;110.97;43.47;;;-7.40;99.90;;;;;;10319932;28;20041;-83
2022/12/14 06:54:17;;;;;;;103.03;41.73;;;-7.40;99.90;;;;;;10320011;28;20030;-83
2022/12/14 06:59:18;;;;;;;108.03;44.30;;;-7.30;99.90;;;;;;10319703;28;20073;-83
2022/12/14 07:04:20;;;;;;;99.90;43.90;;;-7.30;99.90;;;;;;10319576;28;20037;-83
2022/12/14 07:09:20;;;;;;;101.47;46.00;;;-7.10;99.90;;;;;;10319752;28;20050;-83
2022/12/14 07:14:21;;;;;;;115.07;49.00;;;-7.00;99.90;;;;;;10320052;28;20652;-83
2022/12/14 07:19:21;;;;;;;130.67;50.03;;;-7.00;99.90;;;;;;10317950;28;20072;-83
2022/12/14 07:24:22;;;;;;;134.13;54.80;;;-6.90;99.90;;;;;;10318077;28;20030;-83
2022/12/14 07:29:22;;;;;;;99.23;45.53;;;-6.80;99.90;;;;;;10318719;28;20483;-84
2022/12/14 07:34:23;;;;;;;106.20;42.87;;;-6.70;99.90;;;;;;10319054;28;20387;-83
2022/12/14 07:39:24;;;;;;;98.03;42.13;;;-6.60;99.90;;;;;;10318730;28;20141;-83
2022/12/14 07:44:25;;;;;;;122.23;50.37;;;-6.60;99.90;;;;;;10322189;28;20028;-83
2022/12/14 07:49:26;;;;;;;124.73;52.70;;;-6.60;99.90;;;;;;10327138;28;20038;-84
2022/12/14 07:54:26;;;;;;;113.30;47.23;;;-6.50;99.90;;;;;;10327013;28;20044;-83
2022/12/14 07:59:27;;;;;;;129.70;56.07;;;-6.30;99.90;;;;;;10326164;28;20070;-83
2022/12/14 08:04:27;;;;;;;110.77;48.63;;;-6.10;99.90;;;;;;10325619;28;20037;-83
2022/12/14 08:09:28;;;;;;;113.80;43.73;;;-5.90;99.90;;;;;;10326261;28;20044;-83
2022/12/14 08:14:28;;;;;;;103.03;45.47;;;-5.70;99.90;;;;;;10326118;28;20061;-83
2022/12/14 08:19:29;;;;;;;102.13;46.10;;;-5.60;99.90;;;;;;10326060;28;20042;-80
2022/12/14 08:24:29;;;;;;;111.40;46.57;;;-5.40;99.90;;;;;;10325253;28;20076;-80
2022/12/14 08:29:30;;;;;;;110.20;49.27;;;-5.20;99.90;;;;;;10325035;28;20117;-80
2022/12/14 08:34:30;;;;;;;100.77;44.27;;;-5.00;99.90;;;;;;10323321;28;20181;-81
2022/12/14 08:39:31;;;;;;;103.10;42.70;;;-4.80;99.90;;;;;;10325189;28;20080;-80
2022/12/14 08:44:31;;;;;;;105.03;41.80;;;-4.60;99.90;;;;;;10324712;28;20030;-81
2022/12/14 08:49:32;;;;;;;96.70;44.17;;;-4.50;99.90;;;;;;10324998;28;20030;-81
2022/12/14 08:54:32;;;;;;;109.70;45.30;;;-4.60;99.90;;;;;;10323904;28;20031;-81
2022/12/14 08:59:33;;;;;;;107.73;45.20;;;-4.60;99.90;;;;;;10323880;28;20038;-80
2022/12/14 09:04:34;;;;;;;112.70;44.63;;;-4.60;99.90;;;;;;10323971;28;20120;-80
2022/12/14 09:09:36;;;;;;;102.17;43.70;;;-4.60;99.90;;;;;;10323939;28;20058;-80
2022/12/14 09:14:36;;;;;;;107.47;44.20;;;-4.70;99.90;;;;;;10323839;28;20022;-80
2022/12/14 09:19:37;;;;;;;124.23;48.30;;;-4.80;99.90;;;;;;10322957;28;20045;-81
2022/12/14 09:24:37;;;;;;;95.87;39.70;;;-4.90;99.90;;;;;;10323303;28;20751;-80
2022/12/14 09:29:38;;;;;;;90.97;39.57;;;-4.90;99.90;;;;;;10323562;28;20046;-81
2022/12/14 09:34:38;;;;;;;95.80;40.17;;;-4.70;99.90;;;;;;10322502;28;20443;-81
2022/12/14 09:39:39;;;;;;;86.00;38.00;;;-4.40;99.90;;;;;;10321228;28;20045;-81
2022/12/14 09:44:56;;;;;;;101.27;43.30;;;-4.00;99.90;;;;;;10323031;28;20041;-81
2022/12/14 09:50:03;;;;;;;113.17;47.07;;;-3.60;99.90;;;;;;10310746;28;20031;-81
2022/12/14 09:55:18;;;;;;;116.80;49.53;;;-3.20;99.90;;;;;;10321927;28;20061;-81
2022/12/14 10:00:19;;;;;;;149.23;68.77;;;-2.80;99.90;;;;;;10321677;28;20042;-82
2022/12/14 10:05:38;;;;;;;142.27;65.10;;;-2.50;99.90;;;;;;10320741;28;20134;-80
2022/12/14 10:10:44;;;;;;;110.63;48.77;;;-2.20;99.90;;;;;;10321395;28;20096;-81
2022/12/14 10:16:03;;;;;;;77.63;33.43;;;-1.90;99.90;;;;;;10321943;28;20113;-80
2022/12/14 10:21:11;;;;;;;166.90;67.60;;;-1.90;99.90;;;;;;10320794;28;20491;-81
2022/12/14 10:26:17;;;;;;;171.93;74.57;;;-1.80;99.90;;;;;;10320660;28;20423;-82
2022/12/14 10:31:38;;;;;;;;;;;-1.80;99.90;;;;;;10321629;28;20026;-82
2022/12/14 10:36:50;;;;;;;110.73;47.40;;;-1.80;99.90;;;;;;10274522;28;19965;-82
2022/12/14 10:42:03;;;;;;;215.90;90.40;;;-1.70;99.90;;;;;;10268742;28;20113;-82
2022/12/14 10:47:22;;;;;;;108.23;43.93;;;-1.60;99.90;;;;;;10279577;28;20034;-81
2022/12/14 10:52:27;;;;;;;279.90;120.47;;;-1.50;99.90;;;;;;10279677;28;20042;-80
2022/12/14 10:57:27;;;;;;;181.00;73.33;;;-1.30;99.90;;;;;;10279570;28;20470;-82
2022/12/14 11:02:30;;;;;;;175.70;75.90;;;-1.20;99.90;;;;;;10279714;28;20038;-80
2022/12/14 11:07:33;;;;;;;104.47;40.67;;;-1.00;99.90;;;;;;10278612;28;20031;-80
2022/12/14 11:12:34;;;;;;;70.03;32.10;;;-0.90;99.90;;;;;;10279048;28;20031;-81
2022/12/14 11:17:40;;;;;;;106.90;44.20;;;-1.00;99.90;;;;;;10278744;28;20402;-81
2022/12/14 11:22:50;;;;;;;67.78;27.50;;;-1.30;99.90;;;;;;10287692;28;20038;-79
2022/12/14 11:27:51;;;;;;;113.00;51.50;;;-1.60;99.90;;;;;;10286933;28;20019;-82
2022/12/14 11:32:51;;;;;;;102.77;42.83;;;-1.80;99.90;;;;;;10294559;28;20082;-82
2022/12/14 11:37:58;;;;;;;153.17;60.23;;;-2.00;99.90;;;;;;10326615;28;20073;-79
2022/12/14 11:43:03;;;;;;;126.10;50.57;;;-2.20;99.90;;;;;;10326606;28;20026;-80
2022/12/14 11:48:15;;;;;;;121.97;47.75;;;-2.20;99.90;;;;;;10326628;28;20030;-81
2022/12/14 11:53:18;;;;;;;146.03;56.43;;;-2.10;99.90;;;;;;10314374;28;20118;-80
2022/12/14 11:58:30;;;;;;;173.00;67.10;;;-1.90;99.90;;;;;;10326310;28;20034;-81
2022/12/14 12:03:43;;;;;;;97.67;38.97;;;-1.70;99.90;;;;;;10325716;28;20030;-81
2022/12/14 12:08:45;;;;;;;51.40;23.90;;;-1.60;99.90;;;;;;10326779;28;20646;-81
2022/12/14 12:14:18;;;;;;;61.57;23.37;;;-1.60;99.90;;;;;;10324041;28;20026;-80
2022/12/14 12:19:30;;;;;;;108.33;38.47;;;-1.60;99.90;;;;;;10357328;28;20057;-79
2022/12/14 12:24:36;;;;;;;109.27;41.50;;;-1.80;99.90;;;;;;10325349;28;20027;-79
2022/12/14 12:30:05;;;;;;;115.60;46.90;;;-1.70;99.90;;;;;;10325022;28;20025;-81
2022/12/14 12:35:17;;;;;;;61.20;25.40;;;-1.60;99.90;;;;;;10325032;28;20054;-80
2022/12/14 12:40:34;;;;;;;49.73;22.33;;;-1.60;99.90;;;;;;10324856;28;20046;-80
2022/12/14 12:45:50;;;;;;;44.57;19.50;;;-1.70;99.90;;;;;;10324239;28;20105;-81
2022/12/14 12:50:56;;;;;;;51.97;21.83;;;-1.70;99.90;;;;;;10324660;28;20060;-80
2022/12/14 12:56:14;;;;;;;81.47;35.07;;;-1.80;99.90;;;;;;10355423;28;20034;-79
2022/12/14 13:01:18;;;;;;;99.10;39.73;;;-1.70;99.90;;;;;;10311744;28;20410;-80
2022/12/14 13:06:34;;;;;;;81.73;37.50;;;-1.60;99.90;;;;;;10323345;28;20030;-81
2022/12/14 13:11:38;;;;;;;94.03;38.53;;;-1.60;99.90;;;;;;10321826;28;20057;-79
2022/12/14 13:16:40;;;;;;;108.57;41.57;;;-1.60;99.90;;;;;;10322867;28;20027;-80
2022/12/14 13:21:46;;;;;;;103.63;38.07;;;-1.70;99.90;;;;;;10323108;28;20050;-81
2022/12/14 13:26:54;;;;;;;158.02;59.95;;;-1.70;99.90;;;;;;10322710;28;20839;-80
2022/12/14 13:32:06;;;;;;;183.67;66.90;;;-1.80;99.90;;;;;;10322619;28;20041;-81
2022/12/14 13:37:47;;;;;;;85.00;33.07;;;-1.80;99.90;;;;;;10323290;28;20080;-80
2022/12/14 13:43:32;;;;;;;77.87;28.40;;;-1.90;99.90;;;;;;10319749;28;20041;-81
2022/12/14 13:48:40;;;;;;;92.30;32.70;;;-2.00;99.90;;;;;;10311824;28;20053;-80
2022/12/14 13:53:47;;;;;;;97.43;36.07;;;-2.10;99.90;;;;;;10320583;28;20697;-83
2022/12/14 13:58:49;;;;;;;69.37;28.77;;;-2.20;99.90;;;;;;10320877;28;20034;-80
2022/12/14 14:04:15;;;;;;;64.83;23.73;;;-2.30;99.90;;;;;;10321322;28;20029;-80
2022/12/14 14:09:24;;;;;;;60.33;26.52;;;-2.40;99.90;;;;;;10315658;28;20045;-80
2022/12/14 14:14:38;;;;;;;67.30;32.57;;;-2.40;99.90;;;;;;10320216;28;20497;-80
2022/12/14 14:19:40;;;;;;;71.37;32.33;;;-2.40;99.90;;;;;;10279322;28;20046;-80
2022/12/14 14:25:29;;;;;;;48.57;20.00;;;-2.50;99.90;;;;;;10284796;28;20025;-83
2022/12/14 14:30:36;;;;;;;92.97;35.07;;;-2.60;99.90;;;;;;10306676;28;20977;-83
2022/12/14 14:35:37;;;;;;;139.53;49.37;;;-2.60;99.90;;;;;;10320018;28;20058;-79
2022/12/14 14:40:38;;;;;;;141.93;60.77;;;-2.60;99.90;;;;;;10319358;28;20046;-81
2022/12/14 14:45:49;;;;;;;103.57;42.63;;;-2.70;99.90;;;;;;10318887;28;20052;-80
2022/12/14 14:51:15;;;;;;;72.43;31.77;;;-2.80;99.90;;;;;;10307048;28;20535;-81
2022/12/14 14:56:38;;;;;;;73.03;30.67;;;-2.70;99.90;;;;;;10348964;28;20037;-81
2022/12/14 15:02:05;;;;;;;96.13;37.67;;;-2.70;99.90;;;;;;10320033;28;20026;-81
2022/12/14 15:07:14;;;;;;;;;;;-2.80;99.90;;;;;;10318165;28;20044;-80
2022/12/14 15:12:55;;;;;;;96.77;38.00;;;-2.90;99.90;;;;;;10318797;28;19914;-83
2022/12/14 15:18:18;;;;;;;210.33;73.27;;;-2.90;99.90;;;;;;10311030;28;20053;-80
2022/12/14 15:23:20;;;;;;;172.43;64.20;;;-2.90;99.90;;;;;;10319009;28;20022;-81
2022/12/14 15:28:22;;;;;;;153.70;61.63;;;-2.90;99.90;;;;;;10317584;28;20073;-80
2022/12/14 15:33:28;;;;;;;122.30;48.83;;;-3.00;99.90;;;;;;10316582;28;20050;-81
2022/12/14 15:38:31;;;;;;;116.18;43.95;;;-3.00;99.90;;;;;;10315206;28;20053;-81
2022/12/14 15:43:32;;;;;;;83.70;33.93;;;-3.00;99.90;;;;;;10308599;28;20031;-81
2022/12/14 15:48:34;;;;;;;66.63;28.80;;;-3.10;99.90;;;;;;10318393;28;20587;-80
2022/12/14 15:53:48;;;;;;;62.37;26.53;;;-3.10;99.90;;;;;;10311680;28;20065;-80
2022/12/14 15:58:51;;;;;;;55.97;24.60;;;-3.10;99.90;;;;;;10311910;28;20446;-81
2022/12/14 16:04:03;;;;;;;80.07;32.30;;;-3.20;99.90;;;;;;10349279;28;20044;-83
2022/12/14 16:09:19;;;;;;;76.47;33.33;;;-3.20;99.90;;;;;;10324262;28;20030;-81
2022/12/14 16:14:25;;;;;;;82.00;32.10;;;-3.40;99.90;;;;;;10318487;28;20041;-81
2022/12/14 16:19:30;;;;;;;99.17;39.67;;;-3.60;99.90;;;;;;10323357;28;20062;-81
2022/12/14 16:24:31;;;;;;;83.75;35.20;;;-3.70;99.90;;;;;;10325308;28;20052;-82
2022/12/14 16:29:32;;;;;;;84.30;35.37;;;-3.80;99.90;;;;;;10323734;28;20026;-81
2022/12/14 16:34:33;;;;;;;86.77;38.50;;;-3.80;99.90;;;;;;10322859;28;20049;-81
2022/12/14 16:39:38;;;;;;;81.73;34.03;;;-3.80;99.90;;;;;;10324486;28;20092;-80
2022/12/14 16:44:39;;;;;;;87.30;36.60;;;-3.80;99.90;;;;;;10324373;28;20141;-81
2022/12/14 16:49:53;;;;;;;84.23;34.63;;;-3.80;99.90;;;;;;10321963;28;20516;-81
2022/12/14 16:55:06;;;;;;;91.23;34.93;;;-3.70;99.90;;;;;;10320489;28;20030;-81
2022/12/14 17:00:23;;;;;;;81.53;33.13;;;-3.70;99.90;;;;;;10310916;28;20555;-80
2022/12/14 17:05:33;;;;;;;78.10;34.67;;;-3.60;99.90;;;;;;10322493;28;20026;-82
2022/12/14 17:10:34;;;;;;;74.90;30.23;;;-3.60;99.90;;;;;;10321490;28;20027;-82
2022/12/14 17:15:49;;;;;;;68.93;29.20;;;-3.50;99.90;;;;;;10321015;28;20027;-81
2022/12/14 17:20:50;;;;;;;63.28;27.95;;;-3.50;99.90;;;;;;10322724;28;20034;-84
2022/12/14 17:25:51;;;;;;;67.30;28.33;;;-3.40;99.90;;;;;;10316382;28;20442;-84
2022/12/14 17:30:55;;;;;;;65.87;29.23;;;-3.40;99.90;;;;;;10322091;28;20081;-85
2022/12/14 17:35:55;;;;;;;71.50;30.20;;;-3.40;99.90;;;;;;10320839;28;20466;-83
2022/12/14 17:40:56;;;;;;;81.20;29.43;;;-3.40;99.90;;;;;;10315968;28;20053;-83
2022/12/14 17:45:59;;;;;;;72.57;32.40;;;-3.30;99.90;;;;;;10352201;28;20038;-83
2022/12/14 17:51:00;;;;;;;77.80;30.77;;;-3.30;99.90;;;;;;10318506;28;20434;-82
2022/12/14 17:56:01;;;;;;;68.37;28.53;;;-3.20;99.90;;;;;;10311385;28;20034;-81
2022/12/14 18:01:02;;;;;;;82.57;35.67;;;-3.20;99.90;;;;;;10317608;28;20073;-82
2022/12/14 18:06:03;;;;;;;82.53;35.10;;;-3.20;99.90;;;;;;10320793;28;20030;-82
2022/12/14 18:11:04;;;;;;;75.83;33.00;;;-3.20;99.90;;;;;;10322070;28;20027;-82
2022/12/14 18:16:05;;;;;;;82.40;34.07;;;-3.10;99.90;;;;;;10317896;28;20125;-80
2022/12/14 18:21:17;;;;;;;72.83;33.17;;;-3.10;99.90;;;;;;10314227;28;20089;-82
2022/12/14 18:26:19;;;;;;;91.50;33.63;;;-3.10;99.90;;;;;;10317646;28;20085;-83
2022/12/14 18:31:22;;;;;;;81.50;33.50;;;-3.00;99.90;;;;;;10315492;28;20029;-83
2022/12/14 18:36:23;;;;;;;102.77;41.43;;;-3.00;99.90;;;;;;10312771;28;20054;-83
2022/12/14 18:41:25;;;;;;;93.67;42.93;;;-2.90;99.90;;;;;;10351172;28;20026;-84
2022/12/14 18:46:26;;;;;;;140.10;57.60;;;-2.90;99.90;;;;;;10318552;28;20110;-83
2022/12/14 18:51:26;;;;;;;138.80;64.07;;;-2.90;99.90;;;;;;10318973;28;20038;-82
2022/12/14 18:56:47;;;;;;;97.73;42.50;;;-2.90;99.90;;;;;;10317251;28;20454;-81
2022/12/14 19:01:48;;;;;;;129.33;52.23;;;-2.80;99.90;;;;;;10312814;28;20485;-82
2022/12/14 19:06:48;;;;;;;178.33;75.77;;;-2.80;99.90;;;;;;10316108;28;20072;-81
2022/12/14 19:11:49;;;;;;;206.53;88.90;;;-2.80;99.90;;;;;;10314988;28;20390;-82
2022/12/14 19:16:50;;;;;;;182.60;80.97;;;-2.80;99.90;;;;;;10318114;28;20026;-81
2022/12/14 19:21:50;;;;;;;106.60;47.87;;;-2.70;99.90;;;;;;10310225;28;20226;-82
2022/12/14 19:26:51;;;;;;;105.47;46.93;;;-2.70;99.90;;;;;;10309413;28;20671;-84
2022/12/14 19:31:52;;;;;;;105.13;47.37;;;-2.70;99.90;;;;;;10349148;28;20506;-82
2022/12/14 19:36:52;;;;;;;100.57;46.07;;;-2.60;99.90;;;;;;10315484;28;20043;-82
2022/12/14 19:41:53;;;;;;;107.47;43.30;;;-2.60;99.90;;;;;;10315849;28;20093;-84
2022/12/14 19:46:54;;;;;;;100.13;44.17;;;-2.60;99.90;;;;;;10356579;28;20038;-85
2022/12/14 19:51:55;;;;;;;102.07;44.53;;;-2.60;99.90;;;;;;10318057;28;20034;-81
2022/12/14 19:56:56;;;;;;;105.63;45.03;;;-2.60;99.90;;;;;;10325917;28;20042;-82
2022/12/14 20:01:56;;;;;;;105.30;47.63;;;-2.60;99.90;;;;;;10320685;28;20041;-82
2022/12/14 20:06:57;;;;;;;241.27;109.20;;;-2.50;99.90;;;;;;10319947;28;20034;-81
2022/12/14 20:11:58;;;;;;;250.73;105.33;;;-2.50;99.90;;;;;;10322970;28;20030;-83
2022/12/14 20:16:59;;;;;;;138.83;60.17;;;-2.50;99.90;;;;;;10323556;28;20038;-80
2022/12/14 20:21:59;;;;;;;134.30;58.70;;;-2.50;99.90;;;;;;10312364;28;20034;-81
2022/12/14 20:27:00;;;;;;;102.93;46.57;;;-2.40;99.90;;;;;;10324048;28;20034;-80
2022/12/14 20:32:01;;;;;;;102.33;44.37;;;-2.40;99.90;;;;;;10323134;28;20117;-80
2022/12/14 20:37:01;;;;;;;97.77;39.77;;;-2.30;99.90;;;;;;10312028;28;20046;-81
2022/12/14 20:42:02;;;;;;;92.83;39.07;;;-2.40;99.90;;;;;;10303616;28;20114;-83
2022/12/14 20:47:02;;;;;;;95.77;40.73;;;-2.40;99.90;;;;;;10349907;28;20038;-79
2022/12/14 20:52:03;;;;;;;92.60;38.80;;;-2.40;99.90;;;;;;10318846;28;20536;-82
2022/12/14 20:57:04;;;;;;;94.50;40.77;;;-2.30;99.90;;;;;;10323701;28;20128;-82
2022/12/14 21:02:04;;;;;;;94.13;41.90;;;-2.40;99.90;;;;;;10323191;28;20101;-82
2022/12/14 21:07:05;;;;;;;98.83;41.07;;;-2.40;99.90;;;;;;10316972;28;20065;-84
2022/12/14 21:12:20;;;;;;;96.17;39.93;;;-2.40;99.90;;;;;;10324122;28;20030;-82
2022/12/14 21:17:25;;;;;;;185.33;74.37;;;-2.40;99.90;;;;;;10320161;28;20038;-82
2022/12/14 21:22:27;;;;;;;189.57;75.63;;;-2.40;99.90;;;;;;10322529;28;20379;-81
2022/12/14 21:27:30;;;;;;;185.30;77.40;;;-2.40;99.90;;;;;;10323045;28;20057;-84
2022/12/14 21:32:34;;;;;;;246.23;103.93;;;-2.40;99.90;;;;;;10322303;28;20038;-82
2022/12/14 21:37:36;;;;;;;141.33;61.87;;;-2.40;99.90;;;;;;10319653;28;20072;-82
2022/12/14 21:42:37;;;;;;;144.70;61.40;;;-2.30;99.90;;;;;;10321758;28;20582;-82
2022/12/14 21:47:37;;;;;;;169.10;70.50;;;-2.30;99.90;;;;;;10320946;28;20064;-82
2022/12/14 21:52:38;;;;;;;214.80;86.10;;;-2.30;99.90;;;;;;10318355;28;20030;-82
2022/12/14 22:02:58;;;;;;;212.30;86.13;;;-2.30;99.90;;;;;;10320738;28;20042;-82
2022/12/14 22:07:59;;;;;;;197.20;79.20;;;-2.40;99.90;;;;;;10321191;28;20383;-82
2022/12/14 22:12:59;;;;;;;180.63;75.20;;;-2.40;99.90;;;;;;10321132;28;20545;-82
2022/12/14 22:18:00;;;;;;;188.13;80.73;;;-2.40;99.90;;;;;;10350717;28;20675;-82
2022/12/14 22:23:00;;;;;;;180.97;75.90;;;-2.40;99.90;;;;;;10317739;28;20455;-81
2022/12/14 22:28:01;;;;;;;178.33;76.50;;;-2.40;99.90;;;;;;10319970;28;20026;-82
2022/12/14 22:33:01;;;;;;;174.80;72.90;;;-2.30;99.90;;;;;;10318172;28;20414;-82
2022/12/14 22:38:02;;;;;;;183.43;79.47;;;-2.30;99.90;;;;;;10319474;28;20105;-81
2022/12/14 22:43:03;;;;;;;196.47;83.33;;;-2.30;99.90;;;;;;10319112;28;20057;-82
2022/12/14 22:48:04;;;;;;;219.73;95.37;;;-2.40;99.90;;;;;;10309034;28;20041;-81
2022/12/14 22:53:05;;;;;;;327.43;122.17;;;-2.40;99.90;;;;;;10306280;28;20030;-82
2022/12/14 22:58:08;;;;;;;200.57;86.27;;;-2.30;99.90;;;;;;10318819;28;20068;-82
2022/12/14 23:03:10;;;;;;;206.73;90.17;;;-2.40;99.90;;;;;;10317801;28;20042;-84
2022/12/14 23:08:11;;;;;;;201.93;88.33;;;-2.30;99.90;;;;;;10316850;28;20120;-82
